createdAt,value
2022-12-12T00:01:34.034Z,26.03
2022-12-12T00:04:03.187Z,24.33
2022-12-12T00:06:31.897Z,25.43
2022-12-12T00:09:00.404Z,23.03
2022-12-12T00:11:29.290Z,24.70
2022-12-12T00:13:58.197Z,24.13
2022-12-12T00:16:26.957Z,22.70
2022-12-12T00:18:56.810Z,23.60
2022-12-12T00:21:28.973Z,24.63
2022-12-12T00:23:59.157Z,24.93
2022-12-12T00:26:29.705Z,24.57
2022-12-12T00:28:59.698Z,25.13
2022-12-12T00:31:29.199Z,23.53
2022-12-12T00:33:59.122Z,23.23
2022-12-12T00:36:30.669Z,22.77
2022-12-12T00:39:00.730Z,24.00
2022-12-12T00:41:29.392Z,24.60
2022-12-12T00:43:58.044Z,23.30
2022-12-12T00:46:27.238Z,23.93
2022-12-12T00:48:59.010Z,22.63
2022-12-12T00:51:30.784Z,24.17
2022-12-12T00:54:00.322Z,22.30
2022-12-12T00:56:30.843Z,22.50
2022-12-12T00:58:59.295Z,23.67
2022-12-12T01:01:30.933Z,23.20
2022-12-12T01:04:01.657Z,23.57
2022-12-12T01:06:30.272Z,22.30
2022-12-12T01:08:59.184Z,22.67
2022-12-12T01:11:27.821Z,23.17
2022-12-12T01:13:57.072Z,22.17
2022-12-12T01:16:25.888Z,22.23
2022-12-12T01:18:54.510Z,22.20
2022-12-12T01:21:24.615Z,22.40
2022-12-12T01:23:53.170Z,22.77
2022-12-12T01:26:24.213Z,21.20
2022-12-12T01:28:53.287Z,23.60
2022-12-12T01:31:22.137Z,23.80
2022-12-12T01:33:50.746Z,23.30
2022-12-12T01:36:22.293Z,23.03
2022-12-12T01:38:56.739Z,24.47
2022-12-12T01:41:25.531Z,23.20
2022-12-12T01:43:56.135Z,22.87
2022-12-12T01:46:43.126Z,22.37
2022-12-12T01:49:21.421Z,23.10
2022-12-12T01:51:53.373Z,23.57
2022-12-12T01:54:28.639Z,22.13
2022-12-12T01:57:00.039Z,22.27
2022-12-12T01:59:29.391Z,22.27
2022-12-12T02:01:58.255Z,22.93
2022-12-12T02:04:29.069Z,23.77
2022-12-12T02:06:58.495Z,22.50
2022-12-12T02:09:28.568Z,22.83
2022-12-12T02:11:59.494Z,22.63
2022-12-12T02:14:32.411Z,23.27
2022-12-12T02:17:34.083Z,23.43
2022-12-12T02:20:46.713Z,22.00
2022-12-12T02:24:01.907Z,22.93
2022-12-12T02:27:23.577Z,22.37
2022-12-12T02:30:20.356Z,22.53
2022-12-12T02:33:33.854Z,22.90
2022-12-12T02:36:16.552Z,22.63
2022-12-12T02:38:55.900Z,24.00
2022-12-12T02:41:33.134Z,21.77
2022-12-12T02:44:18.361Z,23.10
2022-12-12T02:46:54.900Z,22.87
2022-12-12T02:49:32.904Z,24.57
2022-12-12T02:52:03.525Z,23.93
2022-12-12T02:54:32.105Z,24.27
2022-12-12T02:57:02.555Z,23.83
2022-12-12T02:59:35.231Z,24.10
2022-12-12T03:02:46.745Z,25.57
2022-12-12T03:05:51.891Z,24.43
2022-12-12T03:08:42.986Z,25.13
2022-12-12T03:11:16.667Z,24.60
2022-12-12T03:13:53.963Z,25.03
2022-12-12T03:16:30.119Z,24.07
2022-12-12T03:19:09.854Z,24.43
2022-12-12T03:21:47.638Z,24.40
2022-12-12T03:24:25.677Z,24.30
2022-12-12T03:27:01.625Z,24.97
2022-12-12T03:29:35.282Z,26.10
2022-12-12T03:32:10.860Z,24.67
2022-12-12T03:34:45.388Z,24.07
2022-12-12T03:37:24.054Z,24.03
2022-12-12T03:39:59.124Z,25.07
2022-12-12T03:42:35.839Z,24.70
2022-12-12T03:45:11.279Z,25.13
2022-12-12T03:47:48.855Z,25.00
2022-12-12T03:50:22.289Z,24.23
2022-12-12T03:52:58.981Z,26.23
2022-12-12T03:55:38.608Z,26.03
2022-12-12T03:58:13.378Z,25.80
2022-12-12T04:00:47.459Z,25.40
2022-12-12T04:03:27.496Z,26.30
2022-12-12T04:06:21.881Z,23.97
2022-12-12T04:09:09.485Z,24.40
2022-12-12T04:12:03.276Z,24.33
2022-12-12T04:14:54.289Z,25.33
2022-12-12T04:17:35.155Z,26.07
2022-12-12T04:20:31.761Z,24.33
2022-12-12T04:23:18.101Z,26.17
2022-12-12T04:26:18.763Z,25.67
2022-12-12T04:29:04.429Z,25.80
2022-12-12T04:31:38.071Z,26.27
2022-12-12T04:34:16.311Z,26.47
2022-12-12T04:36:48.178Z,26.80
2022-12-12T04:39:20.989Z,26.93
2022-12-12T04:41:53.590Z,28.70
2022-12-12T04:44:24.906Z,26.83
2022-12-12T04:46:56.916Z,26.47
2022-12-12T04:49:30.046Z,28.77
2022-12-12T04:52:04.600Z,28.20
2022-12-12T04:54:42.458Z,29.33
2022-12-12T04:57:21.159Z,32.90
2022-12-12T04:59:50.666Z,31.13
2022-12-12T05:02:34.921Z,32.87
2022-12-12T05:05:11.385Z,29.20
2022-12-12T05:07:43.897Z,34.70
2022-12-12T05:10:16.254Z,37.00
2022-12-12T05:12:49.548Z,35.90
2022-12-12T05:15:21.524Z,37.43
2022-12-12T05:17:57.599Z,38.13
2022-12-12T05:20:26.430Z,33.30
2022-12-12T05:22:54.973Z,34.47
2022-12-12T05:25:23.213Z,37.00
2022-12-12T05:27:52.888Z,37.47
2022-12-12T05:30:21.326Z,38.03
2022-12-12T05:32:49.848Z,38.13
2022-12-12T05:35:18.643Z,36.13
2022-12-12T05:37:51.730Z,31.70
2022-12-12T05:40:22.433Z,30.30
2022-12-12T05:42:52.180Z,32.83
2022-12-12T05:45:20.919Z,34.13
2022-12-12T05:47:49.352Z,34.43
2022-12-12T05:50:17.880Z,33.20
2022-12-12T05:52:46.140Z,32.10
2022-12-12T05:55:14.756Z,32.33
2022-12-12T05:57:43.365Z,31.90
2022-12-12T06:00:14.669Z,31.97
2022-12-12T06:02:42.985Z,28.77
2022-12-12T06:05:11.770Z,28.13
2022-12-12T06:07:40.349Z,28.40
2022-12-12T06:10:10.382Z,28.93
2022-12-12T06:12:39.200Z,29.10
2022-12-12T06:15:08.753Z,29.50
2022-12-12T06:17:38.844Z,31.33
2022-12-12T06:20:08.676Z,30.07
2022-12-12T06:22:37.325Z,31.37
2022-12-12T06:25:06.668Z,29.90
2022-12-12T06:27:34.981Z,31.73
2022-12-12T06:30:03.414Z,29.47
2022-12-12T06:32:32.224Z,30.43
2022-12-12T06:35:02.104Z,30.07
2022-12-12T06:37:30.584Z,32.07
2022-12-12T06:39:58.826Z,30.33
2022-12-12T06:42:27.641Z,31.40
2022-12-12T06:44:56.104Z,30.23
2022-12-12T06:47:24.577Z,30.87
2022-12-12T06:49:53.167Z,30.03
2022-12-12T06:52:22.893Z,29.93
2022-12-12T06:54:51.403Z,29.57
2022-12-12T06:57:19.696Z,31.17
2022-12-12T06:59:51.151Z,30.37
2022-12-12T07:02:22.190Z,29.03
2022-12-12T07:04:56.367Z,29.40
2022-12-12T07:07:26.182Z,29.97
2022-12-12T07:09:54.514Z,30.13
2022-12-12T07:12:23.008Z,30.73
2022-12-12T07:14:51.315Z,29.73
2022-12-12T07:17:19.579Z,31.60
2022-12-12T07:19:47.892Z,28.87
2022-12-12T07:22:16.103Z,31.03
2022-12-12T07:24:45.815Z,31.93
2022-12-12T07:27:19.960Z,30.37
2022-12-12T07:29:48.298Z,30.97
2022-12-12T07:32:16.644Z,31.30
2022-12-12T07:34:45.239Z,31.93
2022-12-12T07:37:13.507Z,29.83
2022-12-12T07:39:41.907Z,30.33
2022-12-12T07:42:11.562Z,31.77
2022-12-12T07:44:40.836Z,31.37
2022-12-12T07:47:11.315Z,31.40
2022-12-12T07:49:39.697Z,29.57
2022-12-12T07:52:08.235Z,30.33
2022-12-12T07:54:36.864Z,31.97
2022-12-12T07:57:05.424Z,29.17
2022-12-12T07:59:35.100Z,30.30
2022-12-12T08:02:03.641Z,28.90
2022-12-12T08:04:32.999Z,28.97
2022-12-12T08:07:06.841Z,29.43
2022-12-12T08:09:37.503Z,29.23
2022-12-12T08:12:06.605Z,30.37
2022-12-12T08:14:37.738Z,30.27
2022-12-12T08:17:06.201Z,35.17
2022-12-12T08:19:34.981Z,33.40
2022-12-12T08:22:03.413Z,32.50
2022-12-12T08:24:31.797Z,32.77
2022-12-12T08:27:00.157Z,32.87
2022-12-12T08:29:28.430Z,33.27
2022-12-12T08:31:58.224Z,34.67
2022-12-12T08:34:27.091Z,33.17
2022-12-12T08:36:55.410Z,31.47
2022-12-12T08:39:23.929Z,34.70
2022-12-12T08:41:53.052Z,33.53
2022-12-12T08:44:22.665Z,35.47
2022-12-12T08:46:51.141Z,36.10
2022-12-12T08:49:20.947Z,35.63
2022-12-12T08:51:51.276Z,35.53
2022-12-12T08:54:19.738Z,34.50
2022-12-12T08:56:48.039Z,34.50
2022-12-12T08:59:16.451Z,35.40
2022-12-12T09:01:44.837Z,35.57
2022-12-12T09:04:13.247Z,36.77
2022-12-12T09:06:43.080Z,36.03
2022-12-12T09:09:11.439Z,35.30
2022-12-12T09:11:40.948Z,33.37
2022-12-12T09:14:09.319Z,34.30
2022-12-12T09:16:37.976Z,35.30
2022-12-12T09:19:06.403Z,33.27
2022-12-12T09:21:35.278Z,33.40
2022-12-12T09:24:05.264Z,35.13
2022-12-12T09:26:33.655Z,34.37
2022-12-12T09:29:02.247Z,33.30
2022-12-12T09:31:30.863Z,34.57
2022-12-12T09:33:59.320Z,32.93
2022-12-12T09:36:27.759Z,32.83
2022-12-12T09:38:56.112Z,33.10
2022-12-12T09:41:27.946Z,32.07
2022-12-12T09:44:01.503Z,31.93
2022-12-12T09:46:37.662Z,30.87
2022-12-12T09:49:25.249Z,30.73
2022-12-12T09:51:55.438Z,29.67
2022-12-12T09:54:27.645Z,29.63
2022-12-12T09:57:24.743Z,29.23
2022-12-12T09:59:59.311Z,29.43
2022-12-12T10:03:05.745Z,30.83
2022-12-12T10:05:43.419Z,30.73
2022-12-12T10:08:23.255Z,31.47
2022-12-12T10:11:04.137Z,28.17
2022-12-12T10:13:37.750Z,27.80
2022-12-12T10:16:11.106Z,30.40
2022-12-12T10:18:44.692Z,30.23
2022-12-12T10:21:22.604Z,31.07
2022-12-12T10:23:56.367Z,30.50
2022-12-12T10:26:29.615Z,29.90
2022-12-12T10:29:12.480Z,31.80
2022-12-12T10:31:53.577Z,28.67
2022-12-12T10:34:43.655Z,28.23
2022-12-12T10:37:35.787Z,30.13
2022-12-12T10:40:19.688Z,28.97
2022-12-12T10:42:58.294Z,29.90
2022-12-12T10:46:05.669Z,28.83
2022-12-12T10:48:35.042Z,30.23
2022-12-12T10:51:08.009Z,29.10
2022-12-12T10:53:36.905Z,28.63
2022-12-12T10:56:11.695Z,30.20
2022-12-12T10:58:42.442Z,27.23
2022-12-12T11:01:38.431Z,28.87
2022-12-12T11:04:10.415Z,30.10
2022-12-12T11:06:46.780Z,30.33
2022-12-12T11:09:22.746Z,28.23
2022-12-12T11:12:01.455Z,27.80
2022-12-12T11:14:36.196Z,29.27
2022-12-12T11:17:22.062Z,29.73
2022-12-12T11:19:55.261Z,28.97
2022-12-12T11:22:24.289Z,28.00
2022-12-12T11:24:54.144Z,26.40
2022-12-12T11:27:27.740Z,29.00
2022-12-12T11:29:59.586Z,28.10
2022-12-12T11:32:32.507Z,27.20
2022-12-12T11:35:05.348Z,28.27
2022-12-12T11:37:50.983Z,28.90
2022-12-12T11:40:27.197Z,30.07
2022-12-12T11:43:24.783Z,29.70
2022-12-12T11:46:08.544Z,29.87
2022-12-12T11:48:48.304Z,30.73
2022-12-12T11:51:35.784Z,30.77
2022-12-12T11:54:08.427Z,29.13
2022-12-12T11:56:48.403Z,29.37
2022-12-12T11:59:55.825Z,28.13
2022-12-12T12:03:08.245Z,28.93
2022-12-12T12:05:53.708Z,29.50
2022-12-12T12:08:40.277Z,27.33
2022-12-12T12:11:25.406Z,28.23
2022-12-12T12:14:22.223Z,28.23
2022-12-12T12:17:02.579Z,28.70
2022-12-12T12:19:41.341Z,26.63
2022-12-12T12:22:30.911Z,27.80
2022-12-12T12:25:28.498Z,29.13
2022-12-12T12:28:15.535Z,27.10
2022-12-12T12:30:59.372Z,29.60
2022-12-12T12:33:52.403Z,27.57
2022-12-12T12:36:25.625Z,28.47
2022-12-12T12:39:10.963Z,27.73
2022-12-12T12:42:05.231Z,27.63
2022-12-12T12:44:58.348Z,28.63
2022-12-12T12:47:41.333Z,27.40
2022-12-12T12:50:20.341Z,28.87
2022-12-12T12:52:57.114Z,27.27
2022-12-12T12:55:33.641Z,27.17
2022-12-12T12:58:07.858Z,26.63
2022-12-12T13:00:37.358Z,26.73
2022-12-12T13:03:14.613Z,26.73
2022-12-12T13:05:50.232Z,23.53
2022-12-12T13:08:27.463Z,22.83
2022-12-12T13:11:00.853Z,21.27
2022-12-12T13:13:33.442Z,22.00
2022-12-12T13:16:07.631Z,21.07
2022-12-12T13:18:45.645Z,19.63
2022-12-12T13:21:25.326Z,20.87
2022-12-12T13:24:01.678Z,21.50
2022-12-12T13:26:42.456Z,21.40
2022-12-12T13:29:36.237Z,22.63
2022-12-12T13:32:55.644Z,22.27
2022-12-12T13:35:32.110Z,22.50
2022-12-12T13:38:01.418Z,23.27
2022-12-12T13:40:32.248Z,22.97
2022-12-12T13:43:09.492Z,22.40
2022-12-12T13:45:44.263Z,22.03
2022-12-12T13:48:49.879Z,23.03
2022-12-12T13:51:40.570Z,22.97
2022-12-12T13:54:53.507Z,22.50
2022-12-12T13:57:33.391Z,22.70
2022-12-12T14:00:21.089Z,23.77
2022-12-12T14:03:07.528Z,22.00
2022-12-12T14:05:41.207Z,23.00
2022-12-12T14:08:24.725Z,21.10
2022-12-12T14:11:01.306Z,22.17
2022-12-12T14:13:40.122Z,23.80
2022-12-12T14:16:26.622Z,25.07
2022-12-12T14:19:07.396Z,25.87
2022-12-12T14:21:43.983Z,26.93
2022-12-12T14:24:55.502Z,26.67
2022-12-12T14:28:16.745Z,26.67
2022-12-12T14:30:56.786Z,25.70
2022-12-12T14:34:01.283Z,26.73
2022-12-12T14:36:55.397Z,25.40
2022-12-12T14:40:03.967Z,26.50
2022-12-12T14:43:19.564Z,26.67
2022-12-12T14:45:38.269Z,26.07
2022-12-12T14:48:21.031Z,26.07
2022-12-12T14:51:02.599Z,25.37
2022-12-12T14:53:40.297Z,28.93
2022-12-12T14:56:13.507Z,26.70
2022-12-12T14:58:45.841Z,26.03
2022-12-12T15:01:18.507Z,26.10
2022-12-12T15:03:50.727Z,26.80
2022-12-12T15:06:41.325Z,25.77
2022-12-12T15:09:29.253Z,26.40
2022-12-12T15:12:16.065Z,26.40
2022-12-12T15:14:56.580Z,26.33
2022-12-12T15:17:29.931Z,26.90
2022-12-12T15:20:01.620Z,26.07
2022-12-12T15:22:33.151Z,27.23
2022-12-12T15:25:15.644Z,27.27
2022-12-12T15:27:53.853Z,27.07
2022-12-12T15:30:32.761Z,26.30
2022-12-12T15:33:02.622Z,26.97
2022-12-12T15:35:31.160Z,27.20
2022-12-12T15:38:02.324Z,26.53
2022-12-12T15:40:33.929Z,27.80
2022-12-12T15:43:05.635Z,27.57
2022-12-12T15:45:37.642Z,26.03
2022-12-12T15:48:14.311Z,27.73
2022-12-12T15:50:56.950Z,26.50
2022-12-12T15:53:28.074Z,25.33
2022-12-12T15:56:03.160Z,27.20
2022-12-12T15:58:36.624Z,25.83
2022-12-12T16:01:20.435Z,27.43
2022-12-12T16:04:00.162Z,29.67
2022-12-12T16:06:31.705Z,31.63
2022-12-12T16:09:17.482Z,31.77
2022-12-12T16:11:49.615Z,29.10
2022-12-12T16:14:43.225Z,29.67
2022-12-12T16:17:16.704Z,28.93
2022-12-12T16:19:53.255Z,28.57
2022-12-12T16:22:35.385Z,27.67
2022-12-12T16:25:19.654Z,28.47
2022-12-12T16:27:55.753Z,30.03
2022-12-12T16:30:25.249Z,29.87
2022-12-12T16:32:56.334Z,28.67
2022-12-12T16:35:26.111Z,30.13
2022-12-12T16:37:54.507Z,29.80
2022-12-12T16:40:23.343Z,31.07
2022-12-12T16:43:04.763Z,30.57
2022-12-12T16:45:36.179Z,61.80
2022-12-12T16:48:15.672Z,34.57
2022-12-12T16:50:44.352Z,31.83
2022-12-12T16:53:12.699Z,31.17
2022-12-12T16:55:44.211Z,31.33
2022-12-12T16:58:14.188Z,30.00
2022-12-12T17:00:43.496Z,29.83
2022-12-12T17:03:15.201Z,30.13
2022-12-12T17:05:45.133Z,31.27
2022-12-12T17:08:15.298Z,30.83
2022-12-12T17:10:44.598Z,30.53
2022-12-12T17:13:18.368Z,30.70
2022-12-12T17:15:47.000Z,29.90
2022-12-12T17:18:15.391Z,30.53
2022-12-12T17:20:44.539Z,30.87
2022-12-12T17:23:28.282Z,32.30
2022-12-12T17:26:03.137Z,32.47
2022-12-12T17:28:35.066Z,33.67
2022-12-12T17:31:08.828Z,32.43
2022-12-12T17:33:49.524Z,32.67
2022-12-12T17:36:19.679Z,32.67
2022-12-12T17:38:49.642Z,32.80
2022-12-12T17:41:18.057Z,33.67
2022-12-12T17:43:53.655Z,35.73
2022-12-12T17:46:28.425Z,38.53
2022-12-12T17:49:01.718Z,39.50
2022-12-12T17:51:32.092Z,47.47
2022-12-12T17:54:30.675Z,46.13
2022-12-12T17:57:04.191Z,34.83
2022-12-12T17:59:34.073Z,35.30
2022-12-12T18:02:02.531Z,35.27
2022-12-12T18:04:37.683Z,35.93
2022-12-12T18:07:06.953Z,36.60
2022-12-12T18:09:35.627Z,34.50
2022-12-12T18:12:05.029Z,34.07
2022-12-12T18:14:34.766Z,33.67
2022-12-12T18:17:03.098Z,35.00
2022-12-12T18:19:31.395Z,33.30
2022-12-12T18:22:01.635Z,34.40
2022-12-12T18:24:30.340Z,34.87
2022-12-12T18:27:03.347Z,32.87
2022-12-12T18:29:32.238Z,34.27
2022-12-12T18:32:02.229Z,34.93
2022-12-12T18:34:30.639Z,34.43
2022-12-12T18:36:58.933Z,36.27
2022-12-12T18:39:27.359Z,35.33
2022-12-12T18:41:55.744Z,33.80
2022-12-12T18:44:24.674Z,34.00
2022-12-12T18:46:53.149Z,35.33
2022-12-12T18:49:22.890Z,33.37
2022-12-12T18:51:51.214Z,33.93
2022-12-12T18:54:19.606Z,33.07
2022-12-12T18:56:49.329Z,34.27
2022-12-12T18:59:17.775Z,32.77
2022-12-12T19:01:47.905Z,33.83
2022-12-12T19:04:22.809Z,34.43
2022-12-12T19:06:55.242Z,32.97
2022-12-12T19:09:24.026Z,35.88
2022-12-12T19:12:01.603Z,33.77
2022-12-12T19:14:45.965Z,33.63
2022-12-12T19:17:25.311Z,33.07
2022-12-12T19:19:54.989Z,30.97
2022-12-12T19:22:44.492Z,34.03
2022-12-12T19:25:15.244Z,33.57
2022-12-12T19:27:43.923Z,33.60
2022-12-12T19:30:14.917Z,34.07
2022-12-12T19:32:43.472Z,33.87
2022-12-12T19:35:11.862Z,32.90
2022-12-12T19:37:41.520Z,34.40
2022-12-12T19:40:12.099Z,35.73
2022-12-12T19:42:40.817Z,34.73
2022-12-12T19:45:10.924Z,35.33
2022-12-12T19:47:39.236Z,34.47
2022-12-12T19:50:08.357Z,33.60
2022-12-12T19:52:36.678Z,34.07
2022-12-12T19:55:08.077Z,31.50
2022-12-12T19:57:36.508Z,35.27
2022-12-12T20:00:06.100Z,33.70
2022-12-12T20:02:37.771Z,33.03
2022-12-12T20:05:06.911Z,35.10
2022-12-12T20:07:35.309Z,34.00
2022-12-12T20:10:03.640Z,33.73
2022-12-12T20:12:33.383Z,33.63
2022-12-12T20:15:01.946Z,34.43
2022-12-12T20:17:30.230Z,34.67
2022-12-12T20:19:58.560Z,33.47
2022-12-12T20:22:26.866Z,32.93
2022-12-12T20:24:55.190Z,32.63
2022-12-12T20:27:23.520Z,35.60
2022-12-12T20:29:53.258Z,35.27
2022-12-12T20:32:21.580Z,36.17
2022-12-12T20:34:49.954Z,35.33
2022-12-12T20:37:20.150Z,33.90
2022-12-12T20:39:48.708Z,34.80
2022-12-12T20:42:17.100Z,33.90
2022-12-12T20:44:45.389Z,33.23
2022-12-12T20:47:17.137Z,33.67
2022-12-12T20:49:45.575Z,32.50
2022-12-12T20:52:13.853Z,34.10
2022-12-12T20:54:42.130Z,34.17
2022-12-12T20:57:11.496Z,33.03
2022-12-12T20:59:40.156Z,33.13
2022-12-12T21:02:09.594Z,34.53
2022-12-12T21:04:39.341Z,33.93
2022-12-12T21:07:07.892Z,35.60
2022-12-12T21:09:36.323Z,33.63
2022-12-12T21:12:05.128Z,32.70
2022-12-12T21:14:35.122Z,32.40
2022-12-12T21:17:04.823Z,32.17
2022-12-12T21:19:34.631Z,32.33
2022-12-12T21:22:05.509Z,31.07
2022-12-12T21:24:33.871Z,31.77
2022-12-12T21:27:02.149Z,33.23
2022-12-12T21:29:30.454Z,31.93
2022-12-12T21:31:59.417Z,32.70
2022-12-12T21:34:27.771Z,32.57
2022-12-12T21:36:57.403Z,32.73
2022-12-12T21:39:29.810Z,32.23
2022-12-12T21:41:58.159Z,31.83
2022-12-12T21:44:26.875Z,32.93
2022-12-12T21:46:55.259Z,31.47
2022-12-12T21:49:27.528Z,32.03
2022-12-12T21:51:58.424Z,31.13
2022-12-12T21:54:30.021Z,33.87
2022-12-12T21:56:59.447Z,32.17
2022-12-12T21:59:28.562Z,32.53
2022-12-12T22:02:00.107Z,30.87
2022-12-12T22:04:29.475Z,30.57
2022-12-12T22:06:58.640Z,31.97
2022-12-12T22:09:28.723Z,30.90
2022-12-12T22:12:03.057Z,31.90
2022-12-12T22:14:33.833Z,32.47
2022-12-12T22:17:02.972Z,30.40
2022-12-12T22:19:31.760Z,32.23
2022-12-12T22:22:00.154Z,31.47
2022-12-12T22:24:29.943Z,31.53
2022-12-12T22:26:58.255Z,31.67
2022-12-12T22:29:26.642Z,31.17
2022-12-12T22:31:54.947Z,30.30
2022-12-12T22:34:25.141Z,31.63
2022-12-12T22:36:54.737Z,32.17
2022-12-12T22:39:26.292Z,30.93
2022-12-12T22:41:57.783Z,30.07
2022-12-12T22:44:27.628Z,30.80
2022-12-12T22:46:56.899Z,32.83
2022-12-12T22:49:27.585Z,31.50
2022-12-12T22:51:57.483Z,32.00
2022-12-12T22:54:26.152Z,31.57
2022-12-12T22:56:55.933Z,31.03
2022-12-12T22:59:25.382Z,31.43
2022-12-12T23:01:53.939Z,31.97
2022-12-12T23:04:22.373Z,33.03
2022-12-12T23:06:50.632Z,32.90
2022-12-12T23:09:21.511Z,31.77
2022-12-12T23:11:50.889Z,31.43
2022-12-12T23:14:24.791Z,33.37
2022-12-12T23:16:54.817Z,32.63
2022-12-12T23:19:27.238Z,32.40
2022-12-12T23:21:55.662Z,33.50
2022-12-12T23:24:23.878Z,32.03
2022-12-12T23:26:53.084Z,32.73
2022-12-12T23:29:23.169Z,33.23
2022-12-12T23:31:51.623Z,33.60
2022-12-12T23:34:23.601Z,32.80
2022-12-12T23:36:52.510Z,33.70
2022-12-12T23:39:21.851Z,33.50
2022-12-12T23:41:50.216Z,33.77
2022-12-12T23:44:21.328Z,32.47
2022-12-12T23:46:52.958Z,31.53
2022-12-12T23:49:23.699Z,31.83
2022-12-12T23:51:54.361Z,33.10
2022-12-12T23:54:26.663Z,30.80
2022-12-12T23:56:56.654Z,32.10
2022-12-12T23:59:26.989Z,31.47
